Time;durP1;ratioP1;P1;durP2;ratioP2;P2;SDS_P1;SDS_P2;PMS_P1;PMS_P2;Temp;Humidity;BMP_temperature;BMP_pressure;BME280_temperature;BME280_humidity;BME280_pressure;Samples;Min_cycle;Max_cycle;Signal;HPM_P1;HPM_P2
2022/11/26 00:00:47;;;;;;;;;;;;;;;26.34;47.59;97464.80;605573;234;67258;-65
2022/11/26 00:03:15;;;;;;;;;;;;;;;26.33;46.81;97468.61;598877;237;67053;-65
2022/11/26 00:05:43;;;;;;;;;;;;;;;26.33;47.18;97473.20;598894;237;65110;-65
2022/11/26 00:08:13;;;;;;;;;;;;;;;26.32;47.46;97469.68;605603;234;67262;-66
2022/11/26 00:10:40;;;;;;;;;;;;;;;26.31;46.09;97473.48;596839;237;64898;-66
2022/11/26 00:13:09;;;;;;;;;;;;;;;26.31;46.80;97475.38;598894;237;62970;-66
2022/11/26 00:15:37;;;;;;;;;;;;;;;26.30;46.88;97476.45;605153;234;65151;-66
2022/11/26 00:18:04;;;;;;;;;;;;;;;26.30;45.69;97473.77;598929;237;66899;-66
2022/11/26 00:20:32;;;;;;;;;;;;;;;26.28;46.68;97476.77;598954;237;65021;-66
2022/11/26 00:23:02;;;;;;;;;;;;;;;26.27;47.30;97475.17;605575;234;67256;-66
2022/11/26 00:25:40;;;;;;;;;;;;;;;26.28;47.94;97473.28;598900;237;65031;-66
2022/11/26 00:28:24;;;;;;;;;;;;;;;26.26;48.26;97470.87;595460;237;65030;-66
2022/11/26 00:30:52;;;;;;;;;;;;;;;26.27;48.50;97479.74;605575;234;65025;-66
2022/11/26 00:33:19;;;;;;;;;;;;;;;26.24;48.00;97475.74;598931;237;66819;-66
2022/11/26 00:35:47;;;;;;;;;;;;;;;26.23;47.39;97476.84;595730;238;65100;-66
2022/11/26 00:38:16;;;;;;;;;;;;;;;26.23;48.58;97479.54;599769;236;67257;-66
2022/11/26 00:40:44;;;;;;;;;;;;;;;26.22;48.85;97477.95;599723;236;67418;-66
2022/11/26 00:43:12;;;;;;;;;;;;;;;26.20;48.00;97480.13;599727;236;65057;-66
2022/11/26 00:45:40;;;;;;;;;;;;;;;26.20;47.46;97473.95;599753;236;66987;-66
2022/11/26 00:48:07;;;;;;;;;;;;;;;26.18;47.29;97476.92;599724;236;65049;-66
2022/11/26 00:50:39;;;;;;;;;;;;;;;26.17;48.57;97464.56;599825;236;62944;-66
2022/11/26 00:53:07;;;;;;;;;;;;;;;26.17;47.67;97466.45;599358;236;67298;-66
2022/11/26 00:55:36;;;;;;;;;;;;;;;26.17;48.58;97466.45;599798;236;64618;-66
2022/11/26 00:58:05;;;;;;;;;;;;;;;26.16;47.36;97472.92;599778;236;65066;-66
2022/11/26 01:00:34;;;;;;;;;;;;;;;26.14;46.66;97465.16;599773;236;66831;-66
2022/11/26 01:03:01;;;;;;;;;;;;;;;26.14;47.66;97467.84;599819;236;66847;-66
2022/11/26 01:05:32;;;;;;;;;;;;;;;26.13;47.98;97463.53;599723;236;65094;-66
2022/11/26 01:08:01;;;;;;;;;;;;;;;26.12;48.00;97462.73;599776;236;67214;-66
2022/11/26 01:10:29;;;;;;;;;;;;;;;26.10;46.24;97459.53;599762;236;64745;-66
2022/11/26 01:12:57;;;;;;;;;;;;;;;26.10;48.22;97447.96;599756;236;65060;-66
2022/11/26 01:15:25;;;;;;;;;;;;;;;26.09;47.32;97446.38;599814;236;66788;-66
2022/11/26 01:17:54;;;;;;;;;;;;;;;26.08;47.43;97453.66;599811;236;66814;-66
2022/11/26 01:20:23;;;;;;;;;;;;;;;26.07;46.88;97448.55;599711;236;65055;-66
2022/11/26 01:22:51;;;;;;;;;;;;;;;26.08;48.04;97450.14;599773;236;67347;-66
2022/11/26 01:25:19;;;;;;;;;;;;;;;26.07;46.59;97448.55;599756;236;67227;-66
2022/11/26 01:27:46;;;;;;;;;;;;;;;26.06;50.15;97452.35;599728;236;65041;-66
2022/11/26 01:30:15;;;;;;;;;;;;;;;26.05;46.20;97456.12;599777;236;67093;-66
2022/11/26 01:32:43;;;;;;;;;;;;;;;26.04;46.80;97458.02;599660;236;67171;-66
2022/11/26 01:35:11;;;;;;;;;;;;;;;26.04;49.24;97454.53;599746;236;65058;-66
2022/11/26 01:37:38;;;;;;;;;;;;;;;26.02;47.88;97452.12;599742;236;67276;-66
2022/11/26 01:40:07;;;;;;;;;;;;;;;26.02;48.83;97449.42;599762;236;67192;-66
2022/11/26 01:42:36;;;;;;;;;;;;;;;26.02;50.47;97448.63;599130;236;63007;-66
2022/11/26 01:45:05;;;;;;;;;;;;;;;26.01;49.63;97458.61;599655;236;65204;-66
2022/11/26 01:47:32;;;;;;;;;;;;;;;26.01;49.40;97463.20;600527;236;66562;-66
2022/11/26 01:50:18;;;;;;;;;;;;;;;25.99;48.26;97463.48;601230;236;65051;-66
2022/11/26 01:52:46;;;;;;;;;;;;;;;25.98;48.01;97456.50;601237;236;67235;-66
2022/11/26 01:55:14;;;;;;;;;;;;;;;25.97;48.98;97459.47;601210;236;67534;-66
2022/11/26 01:57:43;;;;;;;;;;;;;;;25.96;47.40;97466.76;601267;236;65034;-66
2022/11/26 02:00:11;;;;;;;;;;;;;;;25.95;46.66;97473.25;601217;236;67271;-66
2022/11/26 02:02:39;;;;;;;;;;;;;;;25.95;48.43;97472.45;601271;236;48590;-66
2022/11/26 02:05:20;;;;;;;;;;;;;;;25.95;49.15;97473.25;601208;236;65046;-66
2022/11/26 02:07:47;;;;;;;;;;;;;;;25.93;48.32;97469.25;601125;236;67361;-66
2022/11/26 02:10:15;;;;;;;;;;;;;;;25.91;47.08;97466.83;601242;236;67059;-66
2022/11/26 02:12:42;;;;;;;;;;;;;;;25.91;49.69;97466.83;601247;236;65077;-66
2022/11/26 02:15:11;;;;;;;;;;;;;;;25.90;47.62;97471.42;601221;236;67052;-67
2022/11/26 02:17:40;;;;;;;;;;;;;;;25.88;48.74;97476.29;601220;236;67079;-67
2022/11/26 02:20:22;;;;;;;;;;;;;;;25.88;46.93;97470.11;601168;236;65059;-67
2022/11/26 02:22:51;;;;;;;;;;;;;;;25.87;47.03;97476.60;601216;236;67385;-66
2022/11/26 02:25:26;;;;;;;;;;;;;;;25.84;46.96;97472.59;601280;236;67045;-66
2022/11/26 02:27:55;;;;;;;;;;;;;;;25.84;47.04;97483.37;601223;236;65007;-66
2022/11/26 02:30:23;;;;;;;;;;;;;;;25.84;47.97;97479.88;601216;236;67249;-67
2022/11/26 02:32:57;;;;;;;;;;;;;;;25.83;49.47;97481.75;601237;236;67155;-67
2022/11/26 02:35:35;;;;;;;;;;;;;;;25.83;48.89;97494.38;601187;236;62747;-66
2022/11/26 02:38:06;;;;;;;;;;;;;;;25.82;48.11;97500.87;601245;236;64945;-66
2022/11/26 02:40:34;;;;;;;;;;;;;;;25.80;46.62;97493.07;601276;236;64965;-71
2022/11/26 02:43:01;;;;;;;;;;;;;;;25.81;49.47;97492.00;601223;236;63031;-71
2022/11/26 02:45:31;;;;;;;;;;;;;;;25.80;48.60;97503.84;601183;236;65035;-71
2022/11/26 02:47:59;;;;;;;;;;;;;;;25.78;46.77;97497.14;599402;236;66845;-72
2022/11/26 02:50:28;;;;;;;;;;;;;;;25.78;47.13;97505.22;599755;236;62766;-71
2022/11/26 02:52:57;;;;;;;;;;;;;;;25.76;46.16;97502.84;599835;236;65608;-71
2022/11/26 02:55:26;;;;;;;;;;;;;;;25.76;48.34;97502.84;599773;236;64841;-71
2022/11/26 02:57:54;;;;;;;;;;;;;;;25.75;47.33;97503.11;599776;236;65015;-71
2022/11/26 03:00:22;;;;;;;;;;;;;;;25.74;46.49;97505.01;599725;236;67229;-71
2022/11/26 03:02:51;;;;;;;;;;;;;;;25.74;47.07;97504.22;599782;236;66788;-71
2022/11/26 03:05:19;;;;;;;;;;;;;;;25.73;49.52;97503.42;599688;236;64955;-72
2022/11/26 03:07:48;;;;;;;;;;;;;;;25.71;46.90;97502.90;599832;236;67202;-71
2022/11/26 03:10:19;;;;;;;;;;;;;;;25.71;45.56;97505.59;599739;236;65382;-71
2022/11/26 03:12:45;;;;;;;;;;;;;;;25.71;47.97;97508.28;599679;236;66470;-66
2022/11/26 03:15:13;;;;;;;;;;;;;;;25.69;47.19;97508.56;599770;236;64982;-66
2022/11/26 03:17:41;;;;;;;;;;;;;;;25.69;47.79;97518.53;599750;236;67121;-72
2022/11/26 03:20:08;;;;;;;;;;;;;;;25.68;47.42;97515.05;599807;236;63063;-71
2022/11/26 03:22:36;;;;;;;;;;;;;;;25.67;47.69;97521.53;599738;236;67276;-71
2022/11/26 03:25:05;;;;;;;;;;;;;;;25.67;46.66;97520.70;599773;236;65027;-71
2022/11/26 03:27:33;;;;;;;;;;;;;;;25.65;47.58;97518.31;599785;236;65280;-71
2022/11/26 03:30:00;;;;;;;;;;;;;;;25.65;50.69;97518.31;599729;236;66910;-71
2022/11/26 03:32:28;;;;;;;;;;;;;;;25.64;46.61;97521.28;594588;236;64917;-71
2022/11/26 03:34:55;;;;;;;;;;;;;;;25.63;46.74;97525.08;599727;236;63795;-72
2022/11/26 03:37:23;;;;;;;;;;;;;;;25.62;47.88;97534.25;599742;236;67483;-71
2022/11/26 03:39:50;;;;;;;;;;;;;;;25.63;46.17;97546.61;599734;236;67099;-69
2022/11/26 03:42:18;;;;;;;;;;;;;;;25.61;46.88;97543.40;599784;236;65186;-69
2022/11/26 03:44:45;;;;;;;;;;;;;;;25.61;47.87;97548.78;599809;236;67207;-69
2022/11/26 03:47:13;;;;;;;;;;;;;;;25.60;48.46;97555.27;600671;236;67068;-69
2022/11/26 03:49:40;;;;;;;;;;;;;;;25.59;45.81;97550.95;601216;236;65111;-65
2022/11/26 03:52:08;;;;;;;;;;;;;;;25.58;46.74;97554.74;601230;236;67268;-65
2022/11/26 03:54:35;;;;;;;;;;;;;;;25.58;47.95;97560.13;601199;236;67166;-64
2022/11/26 03:57:02;;;;;;;;;;;;;;;25.57;48.45;97571.99;601223;236;65196;-65
2022/11/26 03:59:30;;;;;;;;;;;;;;;25.56;47.87;97567.68;601205;236;67243;-64
2022/11/26 04:01:57;;;;;;;;;;;;;;;25.56;48.35;97573.06;601214;236;64888;-65
2022/11/26 04:04:25;;;;;;;;;;;;;;;25.55;47.41;97584.92;601226;236;63074;-64
2022/11/26 04:06:52;;;;;;;;;;;;;;;25.52;46.00;97577.43;601175;236;64959;-64
2022/11/26 04:09:20;;;;;;;;;;;;;;;25.51;48.65;97576.63;601209;236;64866;-64
2022/11/26 04:11:47;;;;;;;;;;;;;;;25.52;48.65;97578.23;601249;236;62928;-64
2022/11/26 04:14:15;;;;;;;;;;;;;;;25.51;46.73;97581.19;601200;236;65901;-64
2022/11/26 04:16:42;;;;;;;;;;;;;;;25.50;46.86;97576.91;601254;236;66613;-64
2022/11/26 04:19:10;;;;;;;;;;;;;;;25.51;47.09;97575.81;601193;236;65024;-64
2022/11/26 04:21:37;;;;;;;;;;;;;;;25.49;47.81;97573.42;601190;236;67201;-64
2022/11/26 04:24:05;;;;;;;;;;;;;;;25.48;48.58;97577.18;601227;236;67345;-64
2022/11/26 04:26:33;;;;;;;;;;;;;;;25.47;47.43;97581.77;601205;236;65047;-65
2022/11/26 04:29:00;;;;;;;;;;;;;;;25.46;46.29;97590.94;601192;236;67180;-64
2022/11/26 04:31:28;;;;;;;;;;;;;;;25.45;48.33;97585.83;601213;236;67075;-64
2022/11/26 04:33:55;;;;;;;;;;;;;;;25.43;48.74;97585.34;601182;236;65033;-64
2022/11/26 04:36:22;;;;;;;;;;;;;;;25.42;46.09;97589.89;601242;236;67379;-65
2022/11/26 04:38:50;;;;;;;;;;;;;;;25.43;46.30;97599.59;601208;236;67052;-64
2022/11/26 04:41:17;;;;;;;;;;;;;;;25.42;46.99;97600.66;601216;236;65051;-64
2022/11/26 04:43:45;;;;;;;;;;;;;;;25.41;46.65;97603.65;601228;236;64723;-64
2022/11/26 04:46:12;;;;;;;;;;;;;;;25.41;47.10;97604.45;600834;236;64914;-64
2022/11/26 04:48:40;;;;;;;;;;;;;;;25.40;46.20;97608.23;599751;236;62868;-64
2022/11/26 04:51:07;;;;;;;;;;;;;;;25.39;48.45;97611.99;599747;236;65259;-64
2022/11/26 04:53:35;;;;;;;;;;;;;;;25.38;46.32;97615.78;599750;236;64848;-64
2022/11/26 04:56:02;;;;;;;;;;;;;;;25.38;46.68;97620.36;599746;236;62960;-65
2022/11/26 04:58:30;;;;;;;;;;;;;;;25.36;47.67;97626.02;599738;236;65045;-65
2022/11/26 05:00:57;;;;;;;;;;;;;;;25.36;46.44;97625.22;599720;236;66907;-64
2022/11/26 05:03:25;;;;;;;;;;;;;;;25.35;47.84;97627.11;599802;236;65016;-64
2022/11/26 05:05:52;;;;;;;;;;;;;;;25.35;47.24;97632.50;599757;236;66911;-64
2022/11/26 05:08:20;;;;;;;;;;;;;;;25.34;48.20;97628.19;599775;236;66750;-64
2022/11/26 05:10:49;;;;;;;;;;;;;;;25.34;47.45;97630.08;599762;236;65015;-69
2022/11/26 05:13:16;;;;;;;;;;;;;;;25.33;49.21;97636.55;599678;236;67038;-72
2022/11/26 05:15:44;;;;;;;;;;;;;;;25.32;46.64;97638.45;599809;236;66832;-72
2022/11/26 05:18:11;;;;;;;;;;;;;;;25.32;48.34;97641.14;599801;236;65050;-70
2022/11/26 05:20:39;;;;;;;;;;;;;;;25.31;47.60;97636.03;599775;236;64587;-70
2022/11/26 05:23:06;;;;;;;;;;;;;;;25.29;48.13;97639.02;599803;236;64605;-70
2022/11/26 05:25:34;;;;;;;;;;;;;;;25.29;47.75;97636.33;599791;236;65036;-70
2022/11/26 05:28:01;;;;;;;;;;;;;;;25.28;46.94;97647.36;599799;236;66943;-70
2022/11/26 05:30:29;;;;;;;;;;;;;;;25.27;47.04;97651.15;599773;236;66788;-70
2022/11/26 05:32:56;;;;;;;;;;;;;;;25.27;47.89;97646.56;599755;236;65131;-70
2022/11/26 05:35:24;;;;;;;;;;;;;;;25.25;47.71;97651.42;599778;236;67237;-70
2022/11/26 05:37:51;;;;;;;;;;;;;;;25.24;47.70;97658.69;599738;236;67369;-65
2022/11/26 05:40:19;;;;;;;;;;;;;;;25.24;47.52;97657.89;599823;236;65023;-66
2022/11/26 05:42:46;;;;;;;;;;;;;;;25.24;47.24;97674.83;599753;236;67257;-65
2022/11/26 05:45:15;;;;;;;;;;;;;;;25.23;47.13;97667.83;599745;236;67193;-65
2022/11/26 05:47:42;;;;;;;;;;;;;;;25.22;48.27;97665.44;600892;236;65024;-65
2022/11/26 05:50:10;;;;;;;;;;;;;;;25.21;47.45;97679.98;601230;236;65127;-65
2022/11/26 05:52:38;;;;;;;;;;;;;;;25.20;46.92;97672.98;601301;236;67119;-66
2022/11/26 05:55:06;;;;;;;;;;;;;;;25.20;47.29;97678.36;601232;236;65055;-65
2022/11/26 05:57:33;;;;;;;;;;;;;;;25.18;47.85;97675.97;601222;236;66954;-70
2022/11/26 06:00:01;;;;;;;;;;;;;;;25.18;47.21;97677.83;601232;236;67169;-70
2022/11/26 06:02:30;;;;;;;;;;;;;;;25.17;48.68;97678.93;600784;236;43481;-70
2022/11/26 06:04:57;;;;;;;;;;;;;;;25.15;47.90;97679.20;601251;236;67468;-70
2022/11/26 06:07:25;;;;;;;;;;;;;;;25.14;48.29;97680.27;601233;236;67046;-70
2022/11/26 06:09:52;;;;;;;;;;;;;;;25.13;48.40;97691.31;601153;236;65115;-70
2022/11/26 06:12:20;;;;;;;;;;;;;;;25.13;48.98;97685.94;601226;236;67256;-70
2022/11/26 06:14:49;;;;;;;;;;;;;;;25.11;46.52;97688.10;600961;235;43645;-70
2022/11/26 06:17:16;;;;;;;;;;;;;;;25.11;47.34;97690.79;601281;236;64867;-70
2022/11/26 06:19:44;;;;;;;;;;;;;;;25.10;46.72;97700.75;601278;236;66897;-71
2022/11/26 06:22:11;;;;;;;;;;;;;;;25.10;48.44;97700.75;601240;236;66841;-65
2022/11/26 06:24:39;;;;;;;;;;;;;;;25.09;47.82;97701.02;601224;236;65131;-65
2022/11/26 06:27:07;;;;;;;;;;;;;;;25.09;47.79;97706.39;601239;236;66756;-65
2022/11/26 06:29:36;;;;;;;;;;;;;;;25.08;47.91;97704.80;601281;236;64782;-65
2022/11/26 06:32:03;;;;;;;;;;;;;;;25.07;47.57;97700.48;601273;236;63029;-65
2022/11/26 06:34:31;;;;;;;;;;;;;;;25.07;47.58;97711.25;601232;236;64730;-66
2022/11/26 06:36:58;;;;;;;;;;;;;;;25.07;48.28;97695.11;601187;236;64711;-65
2022/11/26 06:39:26;;;;;;;;;;;;;;;25.06;47.59;97698.89;601245;236;64002;-65
2022/11/26 06:41:53;;;;;;;;;;;;;;;25.06;48.47;97693.52;601195;236;66742;-65
2022/11/26 06:44:21;;;;;;;;;;;;;;;25.05;47.47;97700.78;601299;236;66453;-65
2022/11/26 06:46:48;;;;;;;;;;;;;;;25.05;49.42;97702.68;601177;236;65029;-65
2022/11/26 06:49:16;;;;;;;;;;;;;;;25.03;47.17;97701.05;601246;236;66783;-65
2022/11/26 06:51:43;;;;;;;;;;;;;;;25.03;47.31;97705.63;601140;236;67238;-65
2022/11/26 06:54:11;;;;;;;;;;;;;;;25.02;47.20;97694.08;601217;236;65071;-65
2022/11/26 06:56:38;;;;;;;;;;;;;;;25.01;48.35;97697.83;601279;236;66967;-65
2022/11/26 06:59:06;;;;;;;;;;;;;;;25.01;48.40;97705.90;601257;236;64460;-70
2022/11/26 07:01:33;;;;;;;;;;;;;;;25.01;47.77;97705.90;601239;236;62980;-70
2022/11/26 07:04:01;;;;;;;;;;;;;;;25.00;48.35;97708.89;601204;236;64758;-71
2022/11/26 07:06:29;;;;;;;;;;;;;;;24.99;48.27;97708.09;601220;236;66877;-70
2022/11/26 07:08:58;;;;;;;;;;;;;;;25.00;47.00;97722.33;601241;236;65053;-70
2022/11/26 07:11:26;;;;;;;;;;;;;;;25.01;47.49;97713.97;601216;236;64457;-70
2022/11/26 07:13:53;;;;;;;;;;;;;;;24.99;48.81;97718.84;601199;236;66829;-70
2022/11/26 07:16:21;;;;;;;;;;;;;;;24.99;48.14;97716.16;601148;236;65073;-70
2022/11/26 07:18:50;;;;;;;;;;;;;;;25.00;46.94;97712.38;601200;236;67450;-70
2022/11/26 07:21:18;;;;;;;;;;;;;;;25.00;48.49;97709.69;601253;236;64803;-70
2022/11/26 07:23:46;;;;;;;;;;;;;;;25.00;47.23;97709.69;601136;236;63018;-70
2022/11/26 07:26:14;;;;;;;;;;;;;;;25.00;49.43;97712.38;601099;236;64747;-70
2022/11/26 07:28:43;;;;;;;;;;;;;;;25.00;48.08;97707.00;601162;236;64614;-69
2022/11/26 07:31:12;;;;;;;;;;;;;;;24.99;46.79;97713.47;601047;236;65059;-70
2022/11/26 07:33:39;;;;;;;;;;;;;;;25.01;47.79;97722.03;601220;236;66519;-69
2022/11/26 07:36:08;;;;;;;;;;;;;;;25.02;47.65;97725.55;601258;236;66879;-69
2022/11/26 07:38:36;;;;;;;;;;;;;;;25.01;48.03;97724.72;601200;236;65087;-69
2022/11/26 07:41:07;;;;;;;;;;;;;;;25.03;50.06;97717.19;601199;236;66858;-69
2022/11/26 07:43:35;;;;;;;;;;;;;;;25.03;50.60;97714.50;601185;236;66881;-69
2022/11/26 07:46:03;;;;;;;;;;;;;;;25.03;47.86;97714.50;600945;236;64926;-69
2022/11/26 07:48:32;;;;;;;;;;;;;;;25.04;47.67;97712.61;599808;236;67058;-69
2022/11/26 07:51:00;;;;;;;;;;;;;;;25.06;47.73;97715.03;599798;236;66954;-69
2022/11/26 07:53:29;;;;;;;;;;;;;;;25.07;48.95;97712.05;599767;236;65234;-65
2022/11/26 07:55:59;;;;;;;;;;;;;;;25.07;47.00;97706.66;599812;236;46728;-66
2022/11/26 07:58:26;;;;;;;;;;;;;;;25.09;50.33;97707.20;599760;236;64404;-66
2022/11/26 08:00:54;;;;;;;;;;;;;;;25.09;48.05;97709.88;599718;236;62783;-65
2022/11/26 08:03:21;;;;;;;;;;;;;;;25.10;48.61;97711.51;599726;236;64690;-65
2022/11/26 08:05:51;;;;;;;;;;;;;;;25.12;48.84;97713.90;599741;236;67098;-65
2022/11/26 08:08:20;;;;;;;;;;;;;;;25.12;46.62;97709.32;599784;236;64928;-65
2022/11/26 08:10:48;;;;;;;;;;;;;;;25.14;49.26;97701.78;599729;236;64748;-64
2022/11/26 08:13:17;;;;;;;;;;;;;;;25.15;50.89;97702.61;599788;236;51871;-65
2022/11/26 08:15:46;;;;;;;;;;;;;;;25.16;52.24;97705.03;599808;236;65055;-65
2022/11/26 08:18:13;;;;;;;;;;;;;;;25.17;49.07;97711.20;599766;236;64589;-65
2022/11/26 08:20:41;;;;;;;;;;;;;;;25.17;48.88;97711.20;599766;236;64761;-65
2022/11/26 08:23:08;;;;;;;;;;;;;;;25.19;51.57;97709.84;599756;236;65009;-65
2022/11/26 08:25:36;;;;;;;;;;;;;;;25.19;48.07;97704.46;599766;236;66732;-65
2022/11/26 08:28:04;;;;;;;;;;;;;;;25.22;50.71;97697.72;599802;236;67686;-65
2022/11/26 08:30:31;;;;;;;;;;;;;;;25.24;50.86;97709.00;599727;236;65001;-65
2022/11/26 08:32:59;;;;;;;;;;;;;;;25.23;50.59;97702.80;599749;236;67177;-65
2022/11/26 08:35:26;;;;;;;;;;;;;;;25.25;49.20;97702.53;599762;236;66793;-65
2022/11/26 08:37:54;;;;;;;;;;;;;;;25.26;50.77;97704.13;599725;236;64908;-65
2022/11/26 08:40:21;;;;;;;;;;;;;;;25.27;49.42;97705.75;599782;236;67015;-65
2022/11/26 08:42:49;;;;;;;;;;;;;;;25.29;51.82;97710.83;599764;236;66813;-65
2022/11/26 08:45:16;;;;;;;;;;;;;;;25.30;50.83;97715.14;599736;236;65077;-65
2022/11/26 08:47:43;;;;;;;;;;;;;;;25.30;51.81;97715.94;599740;236;64647;-65
2022/11/26 08:50:12;;;;;;;;;;;;;;;25.31;50.12;97717.53;599540;236;66923;-65
2022/11/26 08:52:39;;;;;;;;;;;;;;;25.33;50.79;97715.37;599859;236;64997;-65
2022/11/26 08:55:08;;;;;;;;;;;;;;;25.34;49.96;97716.97;593211;236;66941;-65
2022/11/26 08:57:37;;;;;;;;;;;;;;;25.35;50.27;97707.83;589765;239;67235;-69
2022/11/26 09:00:05;;;;;;;;;;;;;;;25.37;49.91;97710.22;593788;236;66964;-69
2022/11/26 09:02:33;;;;;;;;;;;;;;;25.37;51.12;97705.66;587458;239;64114;-68
2022/11/26 09:05:00;;;;;;;;;;;;;;;25.38;49.42;97711.84;587181;239;67886;-69
2022/11/26 09:07:28;;;;;;;;;;;;;;;25.38;49.82;97699.19;593009;239;62979;-69
2022/11/26 09:09:55;;;;;;;;;;;;;;;25.40;51.57;97706.96;592959;239;64752;-69
2022/11/26 09:12:23;;;;;;;;;;;;;;;25.41;49.24;97712.07;593009;239;64329;-69
2022/11/26 09:14:50;;;;;;;;;;;;;;;25.42;50.63;97710.98;592954;239;65022;-69
2022/11/26 09:17:17;;;;;;;;;;;;;;;25.42;49.86;97705.59;593104;239;66674;-68
2022/11/26 09:19:45;;;;;;;;;;;;;;;25.44;51.78;97705.33;593329;239;66825;-69
2022/11/26 09:22:12;;;;;;;;;;;;;;;25.44;50.43;97706.13;593287;239;65068;-69
2022/11/26 09:24:40;;;;;;;;;;;;;;;25.45;50.87;97709.61;593296;239;66810;-69
2022/11/26 09:27:09;;;;;;;;;;;;;;;25.46;50.65;97709.34;593305;239;66489;-68
2022/11/26 09:29:36;;;;;;;;;;;;;;;25.47;51.85;97708.24;593281;239;62669;-69
2022/11/26 09:32:05;;;;;;;;;;;;;;;25.49;49.70;97707.17;593307;239;66658;-69
2022/11/26 09:34:32;;;;;;;;;;;;;;;25.50;48.91;97708.77;593255;239;64909;-69
2022/11/26 09:37:00;;;;;;;;;;;;;;;25.52;49.05;97706.61;593274;239;65199;-69
2022/11/26 09:39:27;;;;;;;;;;;;;;;25.52;51.37;97703.91;593281;239;66699;-69
2022/11/26 09:42:05;;;;;;;;;;;;;;;25.52;50.38;97696.64;593262;239;66848;-69
2022/11/26 09:44:34;;;;;;;;;;;;;;;25.52;51.59;97696.64;593260;239;65290;-69
2022/11/26 09:47:03;;;;;;;;;;;;;;;25.53;52.52;97692.05;593017;239;64907;-69
2022/11/26 09:49:33;;;;;;;;;;;;;;;25.54;50.69;97683.70;593279;239;66591;-69
2022/11/26 09:52:00;;;;;;;;;;;;;;;25.56;51.78;97691.48;593197;239;69685;-69
2022/11/26 09:54:29;;;;;;;;;;;;;;;25.57;52.67;97679.64;593286;239;67086;-69
2022/11/26 09:56:58;;;;;;;;;;;;;;;25.56;49.63;97681.51;593229;239;64657;-69
2022/11/26 09:59:26;;;;;;;;;;;;;;;25.58;51.16;97678.55;593162;239;62785;-69
2022/11/26 10:01:53;;;;;;;;;;;;;;;25.58;50.54;97684.73;593233;239;66997;-69
2022/11/26 10:04:26;;;;;;;;;;;;;;;25.58;50.96;97682.03;593239;239;66789;-69
2022/11/26 10:06:57;;;;;;;;;;;;;;;25.59;50.19;97672.89;593197;239;62923;-68
2022/11/26 10:09:29;;;;;;;;;;;;;;;25.61;50.48;97675.28;592984;239;66972;-69
2022/11/26 10:11:58;;;;;;;;;;;;;;;25.60;50.50;97669.10;593022;239;66810;-69
2022/11/26 10:14:44;;;;;;;;;;;;;;;25.63;52.39;97670.42;593082;239;65167;-68
2022/11/26 10:17:29;;;;;;;;;;;;;;;25.62;52.97;97663.45;593233;239;67039;-68
2022/11/26 10:19:59;;;;;;;;;;;;;;;25.64;52.71;97667.43;593208;239;66817;-68
2022/11/26 10:22:28;;;;;;;;;;;;;;;25.65;50.38;97662.88;593220;239;65103;-68
2022/11/26 10:24:57;;;;;;;;;;;;;;;25.65;52.41;97662.88;592900;239;66922;-68
2022/11/26 10:27:26;;;;;;;;;;;;;;;25.65;50.86;97666.36;593243;239;64309;-69
2022/11/26 10:29:58;;;;;;;;;;;;;;;25.67;52.45;97660.67;593273;239;63857;-69
2022/11/26 10:32:27;;;;;;;;;;;;;;;25.67;51.12;97666.06;593147;239;64581;-69
2022/11/26 10:34:56;;;;;;;;;;;;;;;25.68;51.08;97664.99;593136;239;67105;-69
2022/11/26 10:37:25;;;;;;;;;;;;;;;25.69;53.41;97656.61;593218;239;62789;-69
2022/11/26 10:39:54;;;;;;;;;;;;;;;25.69;53.07;97655.81;593235;239;66967;-69
2022/11/26 10:42:22;;;;;;;;;;;;;;;25.69;52.42;97655.81;593265;239;64695;-69
2022/11/26 10:44:51;;;;;;;;;;;;;;;25.72;52.23;97647.16;593210;239;64950;-69
2022/11/26 10:47:20;;;;;;;;;;;;;;;25.71;51.48;97645.57;594168;238;66939;-69
2022/11/26 10:49:48;;;;;;;;;;;;;;;25.72;54.13;97646.36;594643;238;66813;-69
2022/11/26 10:52:17;;;;;;;;;;;;;;;25.72;51.33;97647.16;594668;238;63094;-70
2022/11/26 10:54:46;;;;;;;;;;;;;;;25.73;50.16;97646.09;594645;238;63948;-69
2022/11/26 10:57:15;;;;;;;;;;;;;;;25.75;51.74;97641.20;594648;238;66801;-70
2022/11/26 10:59:47;;;;;;;;;;;;;;;25.76;53.15;97642.03;594625;238;63099;-70
2022/11/26 11:02:18;;;;;;;;;;;;;;;25.75;50.98;97646.59;594649;238;67305;-70
2022/11/26 11:04:48;;;;;;;;;;;;;;;25.77;51.62;97651.70;594455;238;66897;-70
2022/11/26 11:07:38;;;;;;;;;;;;;;;25.77;54.50;97643.62;594362;238;63024;-70
2022/11/26 11:10:11;;;;;;;;;;;;;;;25.77;53.34;97649.80;594643;238;64735;-70
2022/11/26 11:12:42;;;;;;;;;;;;;;;25.78;51.98;97646.04;594689;238;66745;-69
2022/11/26 11:15:11;;;;;;;;;;;;;;;25.78;51.40;97651.42;594649;238;65039;-70
2022/11/26 11:17:39;;;;;;;;;;;;;;;25.79;49.97;97641.45;593958;238;67019;-70
2022/11/26 11:20:11;;;;;;;;;;;;;;;25.79;53.19;97642.25;594651;238;64711;-70
2022/11/26 11:22:39;;;;;;;;;;;;;;;25.80;52.77;97649.22;593232;238;65077;-70
2022/11/26 11:25:08;;;;;;;;;;;;;;;25.80;52.86;97651.92;594610;238;66891;-69
2022/11/26 11:27:40;;;;;;;;;;;;;;;25.81;51.88;97639.25;594072;238;64635;-68
2022/11/26 11:30:09;;;;;;;;;;;;;;;25.81;51.88;97653.54;594659;238;64976;-69
2022/11/26 11:32:38;;;;;;;;;;;;;;;25.82;51.21;97651.64;593935;238;64618;-69
2022/11/26 11:35:13;;;;;;;;;;;;;;;25.81;52.28;97653.54;594645;238;66938;-70
2022/11/26 11:37:48;;;;;;;;;;;;;;;25.81;50.95;97650.84;594371;238;65395;-68
2022/11/26 11:40:18;;;;;;;;;;;;;;;25.82;51.11;97646.25;594698;238;64694;-69
2022/11/26 11:42:47;;;;;;;;;;;;;;;25.82;49.24;97654.34;594691;238;68761;-69
2022/11/26 11:45:22;;;;;;;;;;;;;;;25.82;51.11;97655.13;594442;238;65062;-69
2022/11/26 11:47:55;;;;;;;;;;;;;;;25.82;51.72;97646.25;594175;238;64690;-69
2022/11/26 11:50:36;;;;;;;;;;;;;;;25.83;51.04;97654.06;594629;238;67020;-69
2022/11/26 11:53:15;;;;;;;;;;;;;;;25.84;52.33;97652.20;594641;238;64966;-70
2022/11/26 11:55:47;;;;;;;;;;;;;;;25.82;51.32;97655.13;594481;238;64648;-71
2022/11/26 11:58:22;;;;;;;;;;;;;;;25.83;51.57;97654.06;594649;238;64463;-70
2022/11/26 12:00:51;;;;;;;;;;;;;;;25.84;51.83;97657.58;594432;238;62903;-69
2022/11/26 12:03:38;;;;;;;;;;;;;;;25.84;51.70;97663.77;594583;238;64642;-69
2022/11/26 12:06:07;;;;;;;;;;;;;;;25.83;49.99;97664.83;594352;238;66901;-69
2022/11/26 12:08:39;;;;;;;;;;;;;;;25.84;51.61;97661.06;594423;238;65024;-69
2022/11/26 12:11:17;;;;;;;;;;;;;;;25.84;52.99;97660.27;594689;238;66706;-69
2022/11/26 12:13:52;;;;;;;;;;;;;;;25.84;52.54;97665.66;594311;238;64727;-69
2022/11/26 12:16:21;;;;;;;;;;;;;;;25.83;50.61;97659.45;592068;238;65223;-69
2022/11/26 12:18:50;;;;;;;;;;;;;;;25.84;52.09;97655.69;594612;238;67293;-70
2022/11/26 12:21:19;;;;;;;;;;;;;;;25.83;51.36;97656.75;594448;238;66798;-70
2022/11/26 12:24:01;;;;;;;;;;;;;;;25.83;52.58;97654.06;594404;238;65105;-69
2022/11/26 12:26:36;;;;;;;;;;;;;;;25.84;52.63;97660.27;594702;238;66942;-69
2022/11/26 12:29:08;;;;;;;;;;;;;;;25.83;50.57;97664.83;594288;238;66865;-70
2022/11/26 12:31:37;;;;;;;;;;;;;;;25.82;51.39;97663.20;594572;238;63034;-70
2022/11/26 12:34:06;;;;;;;;;;;;;;;25.83;50.22;97669.39;594548;238;66936;-69
2022/11/26 12:36:39;;;;;;;;;;;;;;;25.83;52.14;97664.83;593613;238;66810;-69
2022/11/26 12:39:16;;;;;;;;;;;;;;;25.82;51.04;97673.98;594642;238;65079;-69
2022/11/26 12:41:38;;;;;;;;;;;;;;;25.83;51.08;97669.39;594613;238;64631;-69
2022/11/26 12:44:07;;;;;;;;;;;;;;;25.83;51.29;97677.47;594476;238;64746;-70
2022/11/26 12:46:36;;;;;;;;;;;;;;;25.82;52.78;97682.05;594384;238;62876;-70
2022/11/26 12:49:05;;;;;;;;;;;;;;;25.83;51.29;97686.38;594585;238;66831;-69
2022/11/26 12:51:47;;;;;;;;;;;;;;;25.83;49.51;97680.98;593639;238;66800;-69
2022/11/26 12:54:25;;;;;;;;;;;;;;;25.83;50.81;97680.16;594622;238;64913;-69
2022/11/26 12:56:57;;;;;;;;;;;;;;;25.84;50.67;97684.50;594691;238;66893;-69